sensor_id;sensor_type;location;lat;lon;timestamp;pressure;altitude;pressure_sealevel;temperature;humidity
40838;BME280;29632;49.168;9.848;2022-11-14T00:01:57;96747.69;;;10.84;43.24
40838;BME280;29632;49.168;9.848;2022-11-14T00:04:23;96756.31;;;10.85;43.19
40838;BME280;29632;49.168;9.848;2022-11-14T00:06:48;96761.81;;;10.82;43.26
40838;BME280;29632;49.168;9.848;2022-11-14T00:09:14;96760.31;;;10.79;43.45
40838;BME280;29632;49.168;9.848;2022-11-14T00:11:39;96758.97;;;10.75;43.44
40838;BME280;29632;49.168;9.848;2022-11-14T00:14:05;96758.97;;;10.75;43.43
40838;BME280;29632;49.168;9.848;2022-11-14T00:16:31;96760.34;;;10.69;43.35
40838;BME280;29632;49.168;9.848;2022-11-14T00:18:56;96766.69;;;10.67;43.17
40838;BME280;29632;49.168;9.848;2022-11-14T00:21:22;96759.00;;;10.65;43.34
40838;BME280;29632;49.168;9.848;2022-11-14T00:23:48;96765.22;;;10.64;43.23
40838;BME280;29632;49.168;9.848;2022-11-14T00:26:13;96767.63;;;10.66;43.38
40838;BME280;29632;49.168;9.848;2022-11-14T00:28:39;96761.34;;;10.68;43.26
40838;BME280;29632;49.168;9.848;2022-11-14T00:31:05;96755.00;;;10.71;43.31
40838;BME280;29632;49.168;9.848;2022-11-14T00:33:30;96754.72;;;10.74;43.37
40838;BME280;29632;49.168;9.848;2022-11-14T00:35:56;96762.69;;;10.72;43.39
40838;BME280;29632;49.168;9.848;2022-11-14T00:38:22;96751.59;;;10.70;43.59
40838;BME280;29632;49.168;9.848;2022-11-14T00:40:48;96750.50;;;10.73;43.30
40838;BME280;29632;49.168;9.848;2022-11-14T00:43:14;96754.72;;;10.74;43.59
40838;BME280;29632;49.168;9.848;2022-11-14T00:45:42;96737.00;;;10.77;43.33
40838;BME280;29632;49.168;9.848;2022-11-14T00:48:08;96737.69;;;10.80;43.41
40838;BME280;29632;49.168;9.848;2022-11-14T00:50:34;96748.63;;;10.83;43.44
40838;BME280;29632;49.168;9.848;2022-11-14T00:52:59;96730.09;;;10.86;43.60
40838;BME280;29632;49.168;9.848;2022-11-14T00:55:25;96732.56;;;10.88;43.50
40838;BME280;29632;49.168;9.848;2022-11-14T00:57:50;96732.28;;;10.91;43.26
40838;BME280;29632;49.168;9.848;2022-11-14T01:00:16;96723.47;;;10.92;43.46
40838;BME280;29632;49.168;9.848;2022-11-14T01:02:42;96729.53;;;10.92;43.28
40838;BME280;29632;49.168;9.848;2022-11-14T01:05:08;96728.41;;;10.95;43.54
40838;BME280;29632;49.168;9.848;2022-11-14T01:07:34;96731.69;;;10.97;43.43
40838;BME280;29632;49.168;9.848;2022-11-14T01:10:00;96733.31;;;10.98;43.26
40838;BME280;29632;49.168;9.848;2022-11-14T01:12:25;96724.56;;;10.99;43.40
40838;BME280;29632;49.168;9.848;2022-11-14T01:14:51;96719.34;;;10.99;43.57
40838;BME280;29632;49.168;9.848;2022-11-14T01:17:16;96715.75;;;11.00;43.51
40838;BME280;29632;49.168;9.848;2022-11-14T01:19:42;96717.41;;;11.01;43.41
40838;BME280;29632;49.168;9.848;2022-11-14T01:22:08;96717.53;;;11.00;43.36
40838;BME280;29632;49.168;9.848;2022-11-14T01:24:33;96716.41;;;11.02;43.59
40838;BME280;29632;49.168;9.848;2022-11-14T01:26:59;96722.47;;;11.03;43.65
40838;BME280;29632;49.168;9.848;2022-11-14T01:29:25;96726.84;;;11.02;43.38
40838;BME280;29632;49.168;9.848;2022-11-14T01:31:51;96718.88;;;11.04;43.67
40838;BME280;29632;49.168;9.848;2022-11-14T01:34:16;96721.19;;;11.07;43.69
40838;BME280;29632;49.168;9.848;2022-11-14T01:36:42;96723.66;;;11.08;43.54
40838;BME280;29632;49.168;9.848;2022-11-14T01:39:08;96716.50;;;11.10;43.38
40838;BME280;29632;49.168;9.848;2022-11-14T01:41:34;96699.72;;;11.13;43.39
40838;BME280;29632;49.168;9.848;2022-11-14T01:44:00;96706.44;;;11.15;43.85
40838;BME280;29632;49.168;9.848;2022-11-14T01:46:27;96696.69;;;11.18;43.42
40838;BME280;29632;49.168;9.848;2022-11-14T01:49:17;96695.06;;;11.17;43.52
40838;BME280;29632;49.168;9.848;2022-11-14T01:52:03;96692.47;;;11.17;43.66
40838;BME280;29632;49.168;9.848;2022-11-14T01:54:33;96691.47;;;11.18;43.64
40838;BME280;29632;49.168;9.848;2022-11-14T01:57:01;96682.19;;;11.15;43.71
40838;BME280;29632;49.168;9.848;2022-11-14T01:59:30;96676.13;;;11.14;43.81
40838;BME280;29632;49.168;9.848;2022-11-14T02:01:58;96674.03;;;11.18;43.85
40838;BME280;29632;49.168;9.848;2022-11-14T02:04:31;96663.63;;;11.18;43.95
40838;BME280;29632;49.168;9.848;2022-11-14T02:06:59;96662.81;;;11.18;43.83
40838;BME280;29632;49.168;9.848;2022-11-14T02:09:27;96649.78;;;11.18;43.88
40838;BME280;29632;49.168;9.848;2022-11-14T02:11:54;96647.00;;;11.19;43.48
40838;BME280;29632;49.168;9.848;2022-11-14T02:14:22;96653.19;;;11.18;44.13
40838;BME280;29632;49.168;9.848;2022-11-14T02:16:47;96651.56;;;11.17;44.17
40838;BME280;29632;49.168;9.848;2022-11-14T02:19:14;96657.44;;;11.19;44.12
40838;BME280;29632;49.168;9.848;2022-11-14T02:21:40;96661.84;;;11.19;44.11
40838;BME280;29632;49.168;9.848;2022-11-14T02:24:09;96658.41;;;11.18;44.01
40838;BME280;29632;49.168;9.848;2022-11-14T02:26:36;96664.91;;;11.14;44.10
40838;BME280;29632;49.168;9.848;2022-11-14T02:29:03;96665.84;;;11.13;44.25
40838;BME280;29632;49.168;9.848;2022-11-14T02:31:29;96671.06;;;11.13;44.08
40838;BME280;29632;49.168;9.848;2022-11-14T02:33:54;96667.78;;;11.11;44.12
40838;BME280;29632;49.168;9.848;2022-11-14T02:36:20;96667.78;;;11.11;44.30
40838;BME280;29632;49.168;9.848;2022-11-14T02:38:46;96674.00;;;11.10;44.18
40838;BME280;29632;49.168;9.848;2022-11-14T02:41:11;96670.03;;;11.06;44.46
40838;BME280;29632;49.168;9.848;2022-11-14T02:43:37;96673.38;;;10.98;44.14
40838;BME280;29632;49.168;9.848;2022-11-14T02:46:02;96673.97;;;10.92;44.36
40838;BME280;29632;49.168;9.848;2022-11-14T02:48:28;96668.25;;;10.88;44.39
40838;BME280;29632;49.168;9.848;2022-11-14T02:50:54;96661.41;;;10.87;44.56
40838;BME280;29632;49.168;9.848;2022-11-14T02:53:19;96677.03;;;10.87;44.37
40838;BME280;29632;49.168;9.848;2022-11-14T02:55:45;96676.94;;;10.79;44.47
40838;BME280;29632;49.168;9.848;2022-11-14T02:58:11;96679.47;;;10.71;44.76
40838;BME280;29632;49.168;9.848;2022-11-14T03:00:37;96674.06;;;10.64;44.71
40838;BME280;29632;49.168;9.848;2022-11-14T03:03:02;96673.88;;;10.66;44.91
40838;BME280;29632;49.168;9.848;2022-11-14T03:05:28;96663.03;;;10.70;44.85
40838;BME280;29632;49.168;9.848;2022-11-14T03:07:54;96644.50;;;10.73;44.65
40838;BME280;29632;49.168;9.848;2022-11-14T03:10:23;96632.94;;;10.76;44.57
40838;BME280;29632;49.168;9.848;2022-11-14T03:12:53;96625.50;;;10.81;44.58
40838;BME280;29632;49.168;9.848;2022-11-14T03:15:19;96608.78;;;10.84;44.44
40838;BME280;29632;49.168;9.848;2022-11-14T03:17:45;96613.53;;;10.88;44.30
40838;BME280;29632;49.168;9.848;2022-11-14T03:20:10;96617.50;;;10.92;44.57
40838;BME280;29632;49.168;9.848;2022-11-14T03:22:36;96633.28;;;10.91;44.34
40838;BME280;29632;49.168;9.848;2022-11-14T03:25:02;96636.53;;;10.93;43.95
40838;BME280;29632;49.168;9.848;2022-11-14T03:27:27;96633.94;;;10.93;44.27
40838;BME280;29632;49.168;9.848;2022-11-14T03:29:53;96640.94;;;10.92;44.72
40838;BME280;29632;49.168;9.848;2022-11-14T03:32:19;96635.41;;;10.95;44.60
40838;BME280;29632;49.168;9.848;2022-11-14T03:34:44;96636.91;;;10.98;44.47
40838;BME280;29632;49.168;9.848;2022-11-14T03:37:10;96640.19;;;11.00;44.40
40838;BME280;29632;49.168;9.848;2022-11-14T03:39:36;96643.91;;;10.98;44.31
40838;BME280;29632;49.168;9.848;2022-11-14T03:42:03;96651.59;;;10.99;44.90
40838;BME280;29632;49.168;9.848;2022-11-14T03:44:28;96653.88;;;11.02;44.40
40838;BME280;29632;49.168;9.848;2022-11-14T03:46:54;96657.84;;;11.06;44.42
40838;BME280;29632;49.168;9.848;2022-11-14T03:49:20;96661.91;;;11.09;44.40
40838;BME280;29632;49.168;9.848;2022-11-14T03:51:45;96653.94;;;11.10;44.45
40838;BME280;29632;49.168;9.848;2022-11-14T03:54:11;96651.19;;;11.12;44.41
40838;BME280;29632;49.168;9.848;2022-11-14T03:56:37;96646.78;;;11.12;44.40
40838;BME280;29632;49.168;9.848;2022-11-14T03:59:02;96663.25;;;11.13;44.22
40838;BME280;29632;49.168;9.848;2022-11-14T04:01:28;96657.22;;;11.12;44.57
40838;BME280;29632;49.168;9.848;2022-11-14T04:03:54;96642.56;;;11.11;44.20
40838;BME280;29632;49.168;9.848;2022-11-14T04:06:19;96635.03;;;11.08;44.52
40838;BME280;29632;49.168;9.848;2022-11-14T04:08:45;96647.56;;;11.05;44.29
40838;BME280;29632;49.168;9.848;2022-11-14T04:11:11;96648.50;;;11.04;44.36
40838;BME280;29632;49.168;9.848;2022-11-14T04:13:36;96644.13;;;11.04;44.72
40838;BME280;29632;49.168;9.848;2022-11-14T04:16:02;96645.38;;;11.00;44.72
40838;BME280;29632;49.168;9.848;2022-11-14T04:18:28;96657.91;;;10.96;44.54
40838;BME280;29632;49.168;9.848;2022-11-14T04:20:54;96666.16;;;10.92;44.58
40838;BME280;29632;49.168;9.848;2022-11-14T04:23:20;96657.00;;;10.88;44.86
40838;BME280;29632;49.168;9.848;2022-11-14T04:25:45;96643.59;;;10.83;44.63
40838;BME280;29632;49.168;9.848;2022-11-14T04:28:12;96645.69;;;10.79;44.79
40838;BME280;29632;49.168;9.848;2022-11-14T04:30:38;96644.03;;;10.78;44.60
40838;BME280;29632;49.168;9.848;2022-11-14T04:33:03;96641.75;;;10.75;44.74
40838;BME280;29632;49.168;9.848;2022-11-14T04:35:29;96647.41;;;10.70;44.75
40838;BME280;29632;49.168;9.848;2022-11-14T04:37:55;96645.59;;;10.71;44.63
40838;BME280;29632;49.168;9.848;2022-11-14T04:40:21;96645.59;;;10.71;44.48
40838;BME280;29632;49.168;9.848;2022-11-14T04:42:47;96642.03;;;10.72;44.68
40838;BME280;29632;49.168;9.848;2022-11-14T04:45:13;96637.78;;;10.71;44.55
40838;BME280;29632;49.168;9.848;2022-11-14T04:47:40;96621.50;;;10.69;44.54
40838;BME280;29632;49.168;9.848;2022-11-14T04:50:06;96614.66;;;10.68;44.40
40838;BME280;29632;49.168;9.848;2022-11-14T04:52:32;96613.03;;;10.67;44.60
40838;BME280;29632;49.168;9.848;2022-11-14T04:54:58;96607.28;;;10.63;44.79
40838;BME280;29632;49.168;9.848;2022-11-14T04:57:23;96612.50;;;10.63;44.85
40838;BME280;29632;49.168;9.848;2022-11-14T04:59:49;96610.84;;;10.62;44.66
40838;BME280;29632;49.168;9.848;2022-11-14T05:02:15;96601.41;;;10.61;44.71
40838;BME280;29632;49.168;9.848;2022-11-14T05:04:40;96591.28;;;10.58;44.72
40838;BME280;29632;49.168;9.848;2022-11-14T05:07:06;96605.44;;;10.55;44.60
40838;BME280;29632;49.168;9.848;2022-11-14T05:09:32;96613.69;;;10.51;44.68
40838;BME280;29632;49.168;9.848;2022-11-14T05:11:57;96616.44;;;10.49;44.64
40838;BME280;29632;49.168;9.848;2022-11-14T05:14:23;96611.38;;;10.48;44.65
40838;BME280;29632;49.168;9.848;2022-11-14T05:16:48;96616.72;;;10.46;44.55
40838;BME280;29632;49.168;9.848;2022-11-14T05:19:14;96609.66;;;10.38;44.55
40838;BME280;29632;49.168;9.848;2022-11-14T05:21:40;96615.28;;;10.34;44.54
40838;BME280;29632;49.168;9.848;2022-11-14T05:24:05;96614.88;;;10.29;44.74
40838;BME280;29632;49.168;9.848;2022-11-14T05:26:31;96616.94;;;10.25;44.70
40838;BME280;29632;49.168;9.848;2022-11-14T05:28:57;96602.75;;;10.19;44.89
40838;BME280;29632;49.168;9.848;2022-11-14T05:31:22;96604.69;;;10.17;45.01
40838;BME280;29632;49.168;9.848;2022-11-14T05:33:48;96607.56;;;10.14;44.77
40838;BME280;29632;49.168;9.848;2022-11-14T05:36:15;96606.91;;;10.12;45.04
40838;BME280;29632;49.168;9.848;2022-11-14T05:38:41;96593.22;;;10.10;44.89
40838;BME280;29632;49.168;9.848;2022-11-14T05:41:15;96597.56;;;10.10;44.86
40838;BME280;29632;49.168;9.848;2022-11-14T05:43:41;96594.16;;;10.09;45.06
40838;BME280;29632;49.168;9.848;2022-11-14T05:46:09;96591.69;;;10.08;44.88
40838;BME280;29632;49.168;9.848;2022-11-14T05:48:36;96601.16;;;10.09;44.82
40838;BME280;29632;49.168;9.848;2022-11-14T05:51:02;96596.09;;;10.07;44.79
40838;BME280;29632;49.168;9.848;2022-11-14T05:53:29;96600.50;;;10.07;44.71
40838;BME280;29632;49.168;9.848;2022-11-14T05:55:59;96596.38;;;10.04;44.98
40838;BME280;29632;49.168;9.848;2022-11-14T05:58:25;96600.78;;;10.04;44.83
40838;BME280;29632;49.168;9.848;2022-11-14T06:00:51;96599.13;;;10.02;44.76
40838;BME280;29632;49.168;9.848;2022-11-14T06:03:17;96600.91;;;10.02;44.73
40838;BME280;29632;49.168;9.848;2022-11-14T06:05:42;96601.72;;;10.02;45.00
40838;BME280;29632;49.168;9.848;2022-11-14T06:08:08;96609.38;;;10.04;44.86
40838;BME280;29632;49.168;9.848;2022-11-14T06:10:34;96616.38;;;10.04;44.76
40838;BME280;29632;49.168;9.848;2022-11-14T06:13:00;96611.47;;;10.00;44.95
40838;BME280;29632;49.168;9.848;2022-11-14T06:15:26;96600.38;;;9.98;44.66
40838;BME280;29632;49.168;9.848;2022-11-14T06:17:53;96610.78;;;9.98;44.71
40838;BME280;29632;49.168;9.848;2022-11-14T06:20:19;96611.06;;;9.95;44.58
40838;BME280;29632;49.168;9.848;2022-11-14T06:22:45;96610.53;;;9.92;44.65
40838;BME280;29632;49.168;9.848;2022-11-14T06:25:10;96611.66;;;9.89;45.09
40838;BME280;29632;49.168;9.848;2022-11-14T06:27:36;96618.63;;;9.89;44.94
40838;BME280;29632;49.168;9.848;2022-11-14T06:30:02;96619.59;;;9.88;44.94
40838;BME280;29632;49.168;9.848;2022-11-14T06:32:28;96619.59;;;9.88;45.25
40838;BME280;29632;49.168;9.848;2022-11-14T06:34:53;96616.88;;;9.89;45.17
40838;BME280;29632;49.168;9.848;2022-11-14T06:37:19;96612.63;;;9.88;45.07
40838;BME280;29632;49.168;9.848;2022-11-14T06:39:45;96618.75;;;9.87;45.38
40838;BME280;29632;49.168;9.848;2022-11-14T06:42:10;96614.41;;;9.88;44.84
40838;BME280;29632;49.168;9.848;2022-11-14T06:44:36;96610.00;;;9.88;45.33
40838;BME280;29632;49.168;9.848;2022-11-14T06:47:02;96625.63;;;9.88;44.83
40838;BME280;29632;49.168;9.848;2022-11-14T06:49:27;96625.34;;;9.91;45.11
40838;BME280;29632;49.168;9.848;2022-11-14T06:51:53;96613.16;;;9.92;44.87
40838;BME280;29632;49.168;9.848;2022-11-14T06:54:18;96619.56;;;9.97;45.01
40838;BME280;29632;49.168;9.848;2022-11-14T06:56:44;96636.53;;;10.01;44.71
40838;BME280;29632;49.168;9.848;2022-11-14T06:59:10;96633.63;;;10.05;44.88
40838;BME280;29632;49.168;9.848;2022-11-14T07:01:36;96621.16;;;10.08;45.03
40838;BME280;29632;49.168;9.848;2022-11-14T07:04:01;96627.84;;;10.11;44.91
40838;BME280;29632;49.168;9.848;2022-11-14T07:06:28;96619.75;;;10.14;44.98
40838;BME280;29632;49.168;9.848;2022-11-14T07:08:55;96617.69;;;10.17;44.79
40838;BME280;29632;49.168;9.848;2022-11-14T07:11:25;96618.06;;;10.23;44.93
40838;BME280;29632;49.168;9.848;2022-11-14T07:13:58;96622.81;;;10.27;44.92
40838;BME280;29632;49.168;9.848;2022-11-14T07:16:29;96626.81;;;10.31;45.00
40838;BME280;29632;49.168;9.848;2022-11-14T07:18:55;96631.44;;;10.37;44.90
40838;BME280;29632;49.168;9.848;2022-11-14T07:21:21;96627.28;;;10.45;44.70
40838;BME280;29632;49.168;9.848;2022-11-14T07:23:48;96630.25;;;10.50;44.87
40838;BME280;29632;49.168;9.848;2022-11-14T07:26:13;96627.88;;;10.56;44.68
40838;BME280;29632;49.168;9.848;2022-11-14T07:28:41;96638.69;;;10.62;44.59
40838;BME280;29632;49.168;9.848;2022-11-14T07:31:09;96640.19;;;10.64;44.54
40838;BME280;29632;49.168;9.848;2022-11-14T07:33:37;96631.25;;;10.67;44.61
40838;BME280;29632;49.168;9.848;2022-11-14T07:36:03;96650.28;;;10.67;44.86
40838;BME280;29632;49.168;9.848;2022-11-14T07:38:30;96672.63;;;10.70;44.84
40838;BME280;29632;49.168;9.848;2022-11-14T07:40:57;96672.34;;;10.73;44.95
40838;BME280;29632;49.168;9.848;2022-11-14T07:43:23;96676.72;;;10.72;45.00
40838;BME280;29632;49.168;9.848;2022-11-14T07:45:49;96674.78;;;10.74;44.95
40838;BME280;29632;49.168;9.848;2022-11-14T07:48:15;96677.25;;;10.76;44.87
40838;BME280;29632;49.168;9.848;2022-11-14T07:50:41;96686.84;;;10.75;44.85
40838;BME280;29632;49.168;9.848;2022-11-14T07:53:06;96707.53;;;10.77;45.16
40838;BME280;29632;49.168;9.848;2022-11-14T07:55:34;96711.50;;;10.81;45.00
40838;BME280;29632;49.168;9.848;2022-11-14T07:58:00;96702.94;;;10.89;44.68
40838;BME280;29632;49.168;9.848;2022-11-14T08:00:25;96696.56;;;11.01;45.11
40838;BME280;29632;49.168;9.848;2022-11-14T08:02:51;96700.94;;;11.19;44.67
40838;BME280;29632;49.168;9.848;2022-11-14T08:05:17;96693.69;;;11.30;44.47
40838;BME280;29632;49.168;9.848;2022-11-14T08:07:43;96687.53;;;11.31;44.73
40838;BME280;29632;49.168;9.848;2022-11-14T08:10:09;96682.59;;;11.28;44.71
40838;BME280;29632;49.168;9.848;2022-11-14T08:12:37;96686.75;;;11.39;44.92
40838;BME280;29632;49.168;9.848;2022-11-14T08:15:07;96684.59;;;11.79;44.37
40838;BME280;29632;49.168;9.848;2022-11-14T08:17:33;96685.72;;;12.37;43.86
40838;BME280;29632;49.168;9.848;2022-11-14T08:19:59;96681.97;;;12.90;43.33
40838;BME280;29632;49.168;9.848;2022-11-14T08:22:24;96688.53;;;13.11;42.69
40838;BME280;29632;49.168;9.848;2022-11-14T08:24:50;96691.31;;;13.09;42.78
40838;BME280;29632;49.168;9.848;2022-11-14T08:27:16;96694.38;;;12.96;43.16
40838;BME280;29632;49.168;9.848;2022-11-14T08:29:41;96686.22;;;12.83;43.24
40838;BME280;29632;49.168;9.848;2022-11-14T08:32:07;96684.88;;;12.71;43.68
40838;BME280;29632;49.168;9.848;2022-11-14T08:34:33;96679.28;;;12.57;43.80
40838;BME280;29632;49.168;9.848;2022-11-14T08:37:00;96677.63;;;12.48;44.19
40838;BME280;29632;49.168;9.848;2022-11-14T08:39:25;96672.50;;;12.38;44.20
40838;BME280;29632;49.168;9.848;2022-11-14T08:41:51;96677.53;;;12.32;44.69
40838;BME280;29632;49.168;9.848;2022-11-14T08:44:17;96671.16;;;12.26;44.73
40838;BME280;29632;49.168;9.848;2022-11-14T08:46:42;96685.66;;;12.20;44.86
40838;BME280;29632;49.168;9.848;2022-11-14T08:49:08;96679.94;;;12.17;44.90
40838;BME280;29632;49.168;9.848;2022-11-14T08:51:34;96684.50;;;12.15;44.64
40838;BME280;29632;49.168;9.848;2022-11-14T08:53:59;96684.16;;;12.09;44.80
40838;BME280;29632;49.168;9.848;2022-11-14T08:56:25;96687.38;;;12.03;44.92
40838;BME280;29632;49.168;9.848;2022-11-14T08:58:51;96688.66;;;11.99;45.19
40838;BME280;29632;49.168;9.848;2022-11-14T09:01:16;96689.97;;;11.95;45.34
40838;BME280;29632;49.168;9.848;2022-11-14T09:03:42;96691.88;;;11.93;45.42
40838;BME280;29632;49.168;9.848;2022-11-14T09:06:07;96698.09;;;11.92;45.25
40838;BME280;29632;49.168;9.848;2022-11-14T09:08:33;96696.44;;;11.91;45.26
40838;BME280;29632;49.168;9.848;2022-11-14T09:11:02;96682.59;;;11.90;45.28
40838;BME280;29632;49.168;9.848;2022-11-14T09:13:31;96684.91;;;11.94;45.40
40838;BME280;29632;49.168;9.848;2022-11-14T09:15:57;96682.63;;;11.99;45.22
40838;BME280;29632;49.168;9.848;2022-11-14T09:18:22;96683.81;;;12.04;45.32
40838;BME280;29632;49.168;9.848;2022-11-14T09:20:48;96686.13;;;12.07;45.33
40838;BME280;29632;49.168;9.848;2022-11-14T09:23:14;96686.78;;;12.09;45.16
40838;BME280;29632;49.168;9.848;2022-11-14T09:25:39;96689.88;;;12.13;45.46
40838;BME280;29632;49.168;9.848;2022-11-14T09:28:05;96691.19;;;12.17;45.12
40838;BME280;29632;49.168;9.848;2022-11-14T09:30:32;96692.69;;;12.20;45.47
40838;BME280;29632;49.168;9.848;2022-11-14T09:33:02;96690.59;;;12.23;45.33
40838;BME280;29632;49.168;9.848;2022-11-14T09:35:29;96695.47;;;12.26;45.30
40838;BME280;29632;49.168;9.848;2022-11-14T09:38:09;96692.41;;;12.31;45.27
40838;BME280;29632;49.168;9.848;2022-11-14T09:40:55;96685.72;;;12.37;45.45
40838;BME280;29632;49.168;9.848;2022-11-14T09:46:22;96695.06;;;12.47;45.15
40838;BME280;29632;49.168;9.848;2022-11-14T09:48:50;96696.25;;;12.53;45.15
40838;BME280;29632;49.168;9.848;2022-11-14T09:51:21;96705.25;;;12.59;44.98
40838;BME280;29632;49.168;9.848;2022-11-14T09:53:58;96703.94;;;12.63;45.24
40838;BME280;29632;49.168;9.848;2022-11-14T09:56:27;96698.75;;;12.71;45.29
40838;BME280;29632;49.168;9.848;2022-11-14T09:58:53;96700.09;;;12.83;45.21
40838;BME280;29632;49.168;9.848;2022-11-14T10:01:59;96695.56;;;13.02;44.83
40838;BME280;29632;49.168;9.848;2022-11-14T10:06:58;96684.66;;;13.39;44.31
40838;BME280;29632;49.168;9.848;2022-11-14T10:10:05;96685.47;;;13.56;44.29
40838;BME280;29632;49.168;9.848;2022-11-14T10:12:45;96689.72;;;13.66;44.25
40838;BME280;29632;49.168;9.848;2022-11-14T10:15:26;96700.50;;;13.71;44.37
40838;BME280;29632;49.168;9.848;2022-11-14T10:28:45;96704.56;;;13.82;45.05
40838;BME280;29632;49.168;9.848;2022-11-14T10:34:18;96696.56;;;13.83;45.10
40838;BME280;29632;49.168;9.848;2022-11-14T10:37:02;96707.00;;;14.00;45.16
40838;BME280;29632;49.168;9.848;2022-11-14T10:39:41;96706.94;;;14.24;45.06
40838;BME280;29632;49.168;9.848;2022-11-14T10:42:11;96702.75;;;14.46;44.81
40838;BME280;29632;49.168;9.848;2022-11-14T10:47:38;96688.28;;;14.67;44.85
40838;BME280;29632;49.168;9.848;2022-11-14T10:50:21;96691.50;;;14.77;44.60
40838;BME280;29632;49.168;9.848;2022-11-14T10:52:51;96695.84;;;14.93;44.54
40838;BME280;29632;49.168;9.848;2022-11-14T10:55:19;96687.38;;;15.06;44.47
40838;BME280;29632;49.168;9.848;2022-11-14T10:57:46;96677.19;;;15.11;44.62
40838;BME280;29632;49.168;9.848;2022-11-14T11:00:16;96670.06;;;15.20;44.45
40838;BME280;29632;49.168;9.848;2022-11-14T11:02:55;96669.56;;;15.24;44.35
40838;BME280;29632;49.168;9.848;2022-11-14T11:05:24;96679.16;;;15.32;44.52
40838;BME280;29632;49.168;9.848;2022-11-14T11:07:50;96673.41;;;15.37;44.41
40838;BME280;29632;49.168;9.848;2022-11-14T11:10:38;96663.72;;;15.37;44.85
40838;BME280;29632;49.168;9.848;2022-11-14T11:13:35;96660.91;;;15.39;44.64
40838;BME280;29632;49.168;9.848;2022-11-14T11:16:04;96657.66;;;15.37;44.89
40838;BME280;29632;49.168;9.848;2022-11-14T11:18:32;96659.09;;;15.39;45.07
40838;BME280;29632;49.168;9.848;2022-11-14T11:21:12;96660.50;;;15.50;44.77
40838;BME280;29632;49.168;9.848;2022-11-14T11:26:28;96660.63;;;15.72;44.97
40838;BME280;29632;49.168;9.848;2022-11-14T11:32:04;96672.09;;;15.94;44.73
40838;BME280;29632;49.168;9.848;2022-11-14T11:34:32;96663.31;;;16.01;44.83
40838;BME280;29632;49.168;9.848;2022-11-14T11:37:18;96664.22;;;16.09;44.90
40838;BME280;29632;49.168;9.848;2022-11-14T11:39:51;96663.56;;;16.21;44.92
40838;BME280;29632;49.168;9.848;2022-11-14T11:42:25;96652.34;;;16.28;44.74
40838;BME280;29632;49.168;9.848;2022-11-14T11:44:54;96663.03;;;16.41;44.47
40838;BME280;29632;49.168;9.848;2022-11-14T11:47:23;96651.31;;;16.43;44.79
40838;BME280;29632;49.168;9.848;2022-11-14T11:49:51;96651.94;;;16.46;44.80
40838;BME280;29632;49.168;9.848;2022-11-14T11:58:24;96647.25;;;16.41;45.07
40838;BME280;29632;49.168;9.848;2022-11-14T12:00:23;96643.16;;;16.38;45.12
40838;BME280;29632;49.168;9.848;2022-11-14T12:02:50;96647.16;;;16.34;45.08
40838;BME280;29632;49.168;9.848;2022-11-14T12:11:31;96640.13;;;16.56;45.19
40838;BME280;29632;49.168;9.848;2022-11-14T12:25:44;96628.44;;;16.95;44.98
40838;BME280;29632;49.168;9.848;2022-11-14T12:30:49;96632.31;;;16.99;44.81
40838;BME280;29632;49.168;9.848;2022-11-14T12:33:38;96639.66;;;17.04;45.00
40838;BME280;29632;49.168;9.848;2022-11-14T12:36:09;96642.09;;;17.06;44.73
40838;BME280;29632;49.168;9.848;2022-11-14T12:38:45;96637.47;;;17.08;44.62
40838;BME280;29632;49.168;9.848;2022-11-14T12:41:25;96638.91;;;17.10;44.84
40838;BME280;29632;49.168;9.848;2022-11-14T12:43:51;96638.28;;;17.08;44.70
40838;BME280;29632;49.168;9.848;2022-11-14T12:46:17;96632.19;;;17.08;44.92
40838;BME280;29632;49.168;9.848;2022-11-14T12:48:46;96637.66;;;17.06;44.88
40838;BME280;29632;49.168;9.848;2022-11-14T12:53:50;96624.78;;;16.96;44.88
40838;BME280;29632;49.168;9.848;2022-11-14T13:08:08;96617.84;;;16.89;45.09
40838;BME280;29632;49.168;9.848;2022-11-14T13:10:47;96624.75;;;16.90;45.00
40838;BME280;29632;49.168;9.848;2022-11-14T13:13:13;96621.69;;;16.86;44.89
40838;BME280;29632;49.168;9.848;2022-11-14T13:15:59;96615.94;;;16.83;45.11
40838;BME280;29632;49.168;9.848;2022-11-14T13:21:36;96617.59;;;16.84;45.06
40838;BME280;29632;49.168;9.848;2022-11-14T13:24:15;96615.78;;;16.84;45.17
40838;BME280;29632;49.168;9.848;2022-11-14T13:26:52;96626.13;;;16.86;45.20
40838;BME280;29632;49.168;9.848;2022-11-14T13:32:09;96606.34;;;16.90;45.12
40838;BME280;29632;49.168;9.848;2022-11-14T13:40:11;96609.88;;;17.25;44.62
40838;BME280;29632;49.168;9.848;2022-11-14T13:43:17;96596.72;;;17.53;44.33
40838;BME280;29632;49.168;9.848;2022-11-14T13:46:04;96585.47;;;18.01;43.69
40838;BME280;29632;49.168;9.848;2022-11-14T13:48:46;96595.44;;;18.54;43.02
40838;BME280;29632;49.168;9.848;2022-11-14T13:51:18;96585.56;;;18.83;42.87
40838;BME280;29632;49.168;9.848;2022-11-14T13:53:45;96594.94;;;19.05;42.89
40838;BME280;29632;49.168;9.848;2022-11-14T14:03:11;96582.53;;;19.13;42.93
40838;BME280;29632;49.168;9.848;2022-11-14T14:10:38;96580.88;;;18.72;43.76
40838;BME280;29632;49.168;9.848;2022-11-14T14:13:19;96589.56;;;18.65;43.97
40838;BME280;29632;49.168;9.848;2022-11-14T14:21:26;96585.06;;;18.53;44.00
40838;BME280;29632;49.168;9.848;2022-11-14T14:24:38;96569.84;;;18.48;44.25
40838;BME280;29632;49.168;9.848;2022-11-14T14:29:53;96578.75;;;18.40;44.23
40838;BME280;29632;49.168;9.848;2022-11-14T14:32:22;96575.91;;;18.35;44.33
40838;BME280;29632;49.168;9.848;2022-11-14T14:34:48;96579.13;;;18.30;44.32
40838;BME280;29632;49.168;9.848;2022-11-14T14:37:22;96581.53;;;18.25;44.33
40838;BME280;29632;49.168;9.848;2022-11-14T14:40:02;96584.97;;;18.19;44.39
40838;BME280;29632;49.168;9.848;2022-11-14T14:42:33;96592.66;;;18.14;44.42
40838;BME280;29632;49.168;9.848;2022-11-14T14:45:01;96591.19;;;18.11;44.40
40838;BME280;29632;49.168;9.848;2022-11-14T14:47:38;96590.78;;;18.08;44.42